YFH weather

Fort Hope Airport
Fort Hope, Ontario, Canada

Public forecast

Using degrees Celsius for public forecast. Weather courtesy of forecast.io.

Closest aviation weather report (METAR) to Fort Hope Airport

Closest report is Lansdowne House Airport, 38.1 nm (70.5 km) N. Retrieved 2020/07/10 16:00 UTC (23 minutes ago):

CYLH 101600Z AUTO 26006KT 230V290 9SM SCT034 SCT041 OVC060 21/15 A2969 RMK SLP057 DENSITY ALT 2000FT

Closest aviation forecast (TAF) to Fort Hope Airport

Closest forecast is Pickle Lake Airport, 86.5 nm (160.1 km) W. Retrieved 2020/07/10 14:39 UTC (2 hours ago):

TAF TAF CYPL 101338Z 1014/1102 26010G20KT P6SM BKN020 TEMPO 1014/1017 BKN025 FM101700 28010G20KT P6SM -SHRA FEW020 BKN040 FM110100 31010KT P6SM BKN025 RMK FCST BASED ON AUTO OBS NXT FCST BY 102000Z